Time;durP1;ratioP1;P1;durP2;ratioP2;P2;SDS_P1;SDS_P2;PMS_P1;PMS_P2;Temp;Humidity;BMP_temperature;BMP_pressure;BME280_temperature;BME280_humidity;BME280_pressure;Samples;Min_cycle;Max_cycle;Signal;HPM_P1;HPM_P2
2024/02/16 00:00:44;;;;;;;3.55;2.55;;;;;;;1.96;100.00;98104.88;1225183;75;2898106;-62
2024/02/16 00:03:17;;;;;;;3.55;2.40;;;;;;;1.91;100.00;98111.47;1224558;75;2921002;-64
2024/02/16 00:05:51;;;;;;;2.85;2.25;;;;;;;1.87;100.00;98102.66;1224196;75;2923622;-66
2024/02/16 00:08:24;;;;;;;2.85;2.50;;;;;;;1.83;100.00;98104.66;1224623;75;2915134;-63
2024/02/16 00:10:59;;;;;;;3.55;2.45;;;;;;;1.89;100.00;98102.25;1223743;75;2924576;-66
2024/02/16 00:13:32;;;;;;;2.80;2.30;;;;;;;1.86;100.00;98114.63;1225020;75;2912844;-64
2024/02/16 00:16:05;;;;;;;3.15;2.20;;;;;;;1.79;100.00;98111.28;1224873;75;2918221;-65
2024/02/16 00:18:38;;;;;;;3.10;2.60;;;;;;;1.83;100.00;98114.69;1224064;75;2930506;-64
2024/02/16 00:21:11;;;;;;;2.35;2.15;;;;;;;1.62;100.00;98113.03;1224180;75;2923660;-66
2024/02/16 00:23:44;;;;;;;4.25;2.90;;;;;;;1.68;100.00;98111.38;1223847;75;2917409;-65
2024/02/16 00:26:19;;;;;;;3.75;2.55;;;;;;;1.56;100.00;98115.38;1224147;75;2915986;-65
2024/02/16 00:28:52;;;;;;;3.45;2.40;;;;;;;1.58;100.00;98112.28;1223943;75;2918055;-63
2024/02/16 00:31:25;;;;;;;3.25;2.35;;;;;;;1.45;100.00;98104.72;1224419;75;2916918;-64
2024/02/16 00:33:58;;;;;;;4.75;2.75;;;;;;;1.37;100.00;98106.00;1224802;75;2920735;-65
2024/02/16 00:36:33;;;;;;;4.55;3.25;;;;;;;1.26;100.00;98103.41;1225233;75;2913808;-66
2024/02/16 00:39:06;;;;;;;3.50;2.95;;;;;;;1.26;100.00;98113.44;1224205;75;2911302;-62
2024/02/16 00:41:41;;;;;;;2.90;2.20;;;;;;;1.38;100.00;98112.16;1224747;75;2922795;-65
2024/02/16 00:44:14;;;;;;;3.10;2.45;;;;;;;1.40;100.00;98118.66;1225734;75;2913340;-64
2024/02/16 00:46:47;;;;;;;2.80;2.05;;;;;;;1.39;100.00;98105.56;1224635;75;2915072;-64
2024/02/16 00:49:20;;;;;;;3.70;2.20;;;;;;;1.39;100.00;98105.56;1221530;75;3030468;-65
2024/02/16 00:51:53;;;;;;;3.00;2.20;;;;;;;1.37;100.00;98105.19;1223284;75;2913159;-65
2024/02/16 00:54:26;;;;;;;2.65;2.25;;;;;;;1.31;100.00;98098.75;1221926;75;2973128;-64
2024/02/16 00:57:02;;;;;;;2.70;1.90;;;;;;;1.30;100.00;98105.28;1224235;75;2917861;-65
2024/02/16 00:59:35;;;;;;;3.40;2.35;;;;;;;1.12;100.00;98100.09;1224701;75;2923457;-64
2024/02/16 01:02:09;;;;;;;3.85;2.80;;;;;;;1.04;100.00;98102.84;1225156;75;2919199;-67
2024/02/16 01:04:42;;;;;;;3.50;2.15;;;;;;;1.19;100.00;98100.03;1225126;75;2913753;-65
2024/02/16 01:07:14;;;;;;;3.55;2.75;;;;;;;1.25;100.00;98099.19;1224958;75;2917296;-66
2024/02/16 01:09:48;;;;;;;3.45;2.30;;;;;;;1.23;100.00;98098.06;1224639;75;2923258;-64
2024/02/16 01:12:24;;;;;;;3.15;2.20;;;;;;;1.23;100.00;98101.50;1225346;75;2912845;-64
2024/02/16 01:14:56;;;;;;;2.50;2.15;;;;;;;1.34;100.00;98090.59;1223975;75;2911578;-67
2024/02/16 01:17:29;;;;;;;3.30;2.35;;;;;;;1.26;100.00;98106.09;1224906;75;2927499;-64
2024/02/16 01:20:03;;;;;;;2.35;1.75;;;;;;;1.24;100.00;98108.44;1224795;75;2913682;-63
2024/02/16 01:22:36;;;;;;;4.40;2.80;;;;;;;1.18;100.00;98096.56;1224090;75;2915261;-66
2024/02/16 01:25:11;;;;;;;3.30;2.25;;;;;;;1.26;100.00;98102.63;1224909;75;2923580;-66
2024/02/16 01:27:49;;;;;;;4.30;2.50;;;;;;;1.17;100.00;98102.34;1225082;75;2921793;-66
2024/02/16 01:30:22;;;;;;;4.30;2.40;;;;;;;1.18;100.00;98101.94;1225171;75;2913465;-66
2024/02/16 01:32:55;;;;;;;3.65;2.50;;;;;;;1.16;100.00;98104.28;1224280;75;2956980;-65
2024/02/16 01:35:27;;;;;;;3.40;2.70;;;;;;;1.16;100.00;98106.22;1224415;75;2923104;-66
2024/02/16 01:38:01;;;;;;;3.40;2.45;;;;;;;1.24;100.00;98094.19;1224890;75;2909815;-65
2024/02/16 01:40:34;;;;;;;2.15;1.70;;;;;;;1.18;100.00;98093.88;1224706;75;2920848;-63
2024/02/16 01:43:09;;;;;;;2.95;2.35;;;;;;;1.11;100.00;98098.53;1224474;75;2918170;-64
2024/02/16 01:45:43;;;;;;;5.20;3.30;;;;;;;1.10;100.00;98100.47;1224999;75;2918801;-64
2024/02/16 01:48:17;;;;;;;4.00;3.20;;;;;;;1.05;100.00;98101.69;1224295;75;2934868;-64
2024/02/16 01:50:52;;;;;;;7.30;3.55;;;;;;;1.06;100.00;98100.53;1224585;75;2914990;-62
2024/02/16 01:53:27;;;;;;;4.40;3.15;;;;;;;1.14;100.00;98103.91;1224057;75;2921790;-64
2024/02/16 01:56:00;;;;;;;4.10;2.85;;;;;;;1.24;100.00;98105.72;1224459;75;2923200;-64
2024/02/16 01:58:36;;;;;;;3.00;2.30;;;;;;;1.06;100.00;98097.84;1224234;75;2925403;-65
2024/02/16 02:01:09;;;;;;;3.05;2.45;;;;;;;0.97;100.00;98089.44;1224252;75;2930866;-66
2024/02/16 02:03:42;;;;;;;2.50;1.90;;;;;;;1.05;100.00;98101.69;1225258;75;2927197;-66
2024/02/16 02:06:15;;;;;;;4.00;2.50;;;;;;;0.96;100.00;98098.72;1224930;75;2915508;-65
2024/02/16 02:08:47;;;;;;;2.50;1.90;;;;;;;0.97;100.00;98102.16;1224911;75;2924349;-64
2024/02/16 02:11:20;;;;;;;2.35;1.50;;;;;;;0.76;100.00;98093.09;1225166;75;2914350;-64
2024/02/16 02:13:56;;;;;;;2.20;1.90;;;;;;;0.89;100.00;98092.59;1223865;75;2929389;-67
2024/02/16 02:16:29;;;;;;;2.55;1.75;;;;;;;0.86;100.00;98091.47;1224923;75;2917410;-63
2024/02/16 02:19:02;;;;;;;2.55;1.90;;;;;;;0.81;100.00;98092.66;1224918;75;2922859;-64
2024/02/16 02:21:34;;;;;;;2.40;1.75;;;;;;;0.78;100.00;98087.31;1224222;75;2928336;-65
2024/02/16 02:24:10;;;;;;;2.50;1.65;;;;;;;0.81;100.00;98087.28;1224277;75;2916805;-64
2024/02/16 02:26:44;;;;;;;2.00;1.65;;;;;;;0.76;100.00;98074.25;1224870;75;2919158;-66
2024/02/16 02:29:16;;;;;;;2.95;1.80;;;;;;;0.73;100.00;98080.44;1223970;75;2926263;-65
2024/02/16 02:31:49;;;;;;;2.35;1.50;;;;;;;0.59;100.00;98069.78;1224598;75;2917725;-66
2024/02/16 02:34:23;;;;;;;4.45;1.90;;;;;;;0.68;100.00;98069.34;1224704;75;2914824;-66
2024/02/16 02:36:55;;;;;;;1.95;1.50;;;;;;;0.64;100.00;98067.41;1224136;75;2920216;-65
2024/02/16 02:39:31;;;;;;;2.55;1.60;;;;;;;0.62;100.00;98068.97;1223997;75;2922264;-64
2024/02/16 02:42:04;;;;;;;2.95;2.15;;;;;;;0.50;100.00;98061.41;1224757;75;2921284;-65
2024/02/16 02:44:37;;;;;;;2.90;1.80;;;;;;;0.57;100.00;98072.88;1223857;75;2925375;-63
2024/02/16 02:47:10;;;;;;;3.05;2.10;;;;;;;0.52;100.00;98064.47;1223227;75;2949314;-64
2024/02/16 02:49:42;;;;;;;2.05;1.75;;;;;;;0.60;100.00;98072.09;1223544;75;2924683;-63
2024/02/16 02:52:15;;;;;;;2.80;1.85;;;;;;;0.64;100.00;98074.75;1223314;75;2925733;-61
2024/02/16 02:54:51;;;;;;;2.25;1.70;;;;;;;0.64;100.00;98066.66;1223428;75;2923566;-63
2024/02/16 02:57:23;;;;;;;1.75;1.50;;;;;;;0.56;100.00;98062.50;1224013;75;2924314;-63
2024/02/16 02:59:56;;;;;;;2.55;1.70;;;;;;;0.56;100.00;98065.97;1223574;75;2925866;-62
2024/02/16 03:02:29;;;;;;;2.95;2.00;;;;;;;0.53;100.00;98055.19;1224040;75;2922115;-64
2024/02/16 03:05:02;;;;;;;3.30;1.80;;;;;;;0.50;100.00;98064.09;1223645;75;2922743;-64
2024/02/16 03:07:35;;;;;;;2.55;1.80;;;;;;;0.39;100.00;98058.81;1223162;75;2926770;-65
2024/02/16 03:10:14;;;;;;;4.10;2.30;;;;;;;0.34;100.00;98053.84;1223783;75;2927184;-65
2024/02/16 03:12:48;;;;;;;3.15;2.05;;;;;;;0.37;100.00;98050.34;1224261;75;2917372;-65
2024/02/16 03:15:21;;;;;;;2.35;1.85;;;;;;;0.34;100.00;98054.59;1224574;75;2917724;-64
2024/02/16 03:17:54;;;;;;;1.75;1.50;;;;;;;0.39;100.00;98050.72;1223876;75;2925455;-65
2024/02/16 03:20:27;;;;;;;2.45;1.85;;;;;;;0.19;100.00;98058.56;1223960;75;2922852;-66
2024/02/16 03:23:00;;;;;;;2.80;2.00;;;;;;;0.24;100.00;98063.53;1224100;75;2920029;-65
2024/02/16 03:25:36;;;;;;;3.05;2.00;;;;;;;0.14;100.00;98065.13;1224126;75;2920809;-65
2024/02/16 03:28:12;;;;;;;3.55;2.20;;;;;;;0.17;100.00;98066.28;1224047;75;2921795;-65
2024/02/16 03:30:45;;;;;;;4.80;2.40;;;;;;;0.10;100.00;98060.94;1224014;75;2920996;-63
2024/02/16 03:33:18;;;;;;;3.50;2.15;;;;;;;0.12;100.00;98061.28;1224280;75;2925939;-63
2024/02/16 03:35:51;;;;;;;2.90;1.90;;;;;;;0.13;100.00;98073.63;1224651;75;2916620;-64
2024/02/16 03:38:23;;;;;;;2.65;2.25;;;;;;;0.23;100.00;98064.69;1224706;75;2918409;-65
2024/02/16 03:40:59;;;;;;;3.60;2.20;;;;;;;-0.01;100.00;98061.00;1223572;75;2922205;-64
2024/02/16 03:43:32;;;;;;;3.65;2.20;;;;;;;0.08;100.00;98072.09;1224131;75;2925617;-64
2024/02/16 03:46:04;;;;;;;3.20;2.15;;;;;;;0.08;100.00;98057.88;1224640;75;2915023;-65
2024/02/16 03:48:37;;;;;;;2.65;1.90;;;;;;;0.15;100.00;98063.22;1224183;75;2927122;-65
2024/02/16 03:51:10;;;;;;;3.00;1.90;;;;;;;0.13;100.00;98063.59;1224675;75;2924943;-64
2024/02/16 03:53:44;;;;;;;2.75;1.75;;;;;;;0.16;100.00;98078.19;1223158;75;2923422;-64
2024/02/16 03:56:23;;;;;;;2.00;1.60;;;;;;;0.05;100.00;98080.97;1224060;75;2920412;-65
2024/02/16 03:58:55;;;;;;;3.50;2.10;;;;;;;0.09;100.00;98087.06;1224377;75;2929317;-65
2024/02/16 04:01:28;;;;;;;2.30;1.65;;;;;;;0.06;100.00;98079.81;1223106;75;2941066;-62
2024/02/16 04:04:01;;;;;;;2.40;1.80;;;;;;;-0.08;100.00;98083.34;1223536;75;2930140;-66
2024/02/16 04:06:36;;;;;;;1.95;1.70;;;;;;;0.05;100.00;98088.25;1223870;75;2928245;-65
2024/02/16 04:09:09;;;;;;;4.05;1.85;;;;;;;0.07;100.00;98088.63;1224444;75;2921887;-65
2024/02/16 04:11:44;;;;;;;2.10;1.60;;;;;;;0.06;100.00;98084.44;1223098;75;2921892;-64
2024/02/16 04:14:17;;;;;;;2.80;1.60;;;;;;;0.01;100.00;98082.16;1222955;75;2922589;-64
2024/02/16 04:16:50;;;;;;;2.45;1.60;;;;;;;-0.07;100.00;98086.81;1223335;75;2925812;-63
2024/02/16 04:19:23;;;;;;;2.90;2.20;;;;;;;-0.03;100.00;98091.00;1224549;75;2920339;-65
2024/02/16 04:21:55;;;;;;;4.60;2.45;;;;;;;-0.03;100.00;98093.69;1223700;75;2919442;-65
2024/02/16 04:24:28;;;;;;;2.10;1.90;;;;;;;0.06;100.00;98090.56;1223382;75;2920972;-64
2024/02/16 04:27:04;;;;;;;2.70;2.00;;;;;;;0.01;100.00;98085.59;1223964;75;2923324;-63
2024/02/16 04:29:36;;;;;;;2.70;2.05;;;;;;;-0.02;100.00;98089.84;1222915;75;2930356;-65
2024/02/16 04:32:09;;;;;;;2.80;1.80;;;;;;;0.05;100.00;98085.56;1223907;75;2922490;-65
2024/02/16 04:34:42;;;;;;;3.55;2.45;;;;;;;-0.03;100.00;98087.53;1224069;75;2918813;-64
2024/02/16 04:37:16;;;;;;;3.55;2.40;;;;;;;-0.02;100.00;98095.22;1222074;75;2918835;-66
2024/02/16 04:39:49;;;;;;;2.60;1.70;;;;;;;-0.15;100.00;98086.06;1223749;75;2925212;-63
2024/02/16 04:42:25;;;;;;;3.90;2.60;;;;;;;-0.26;100.00;98088.06;1224497;75;2919121;-66
2024/02/16 04:44:58;;;;;;;3.50;2.55;;;;;;;-0.28;100.00;98085.75;1224134;75;2921793;-64
2024/02/16 04:47:30;;;;;;;2.40;1.95;;;;;;;-0.36;100.00;98094.25;1224941;75;2915939;-62
2024/02/16 04:50:03;;;;;;;3.55;2.35;;;;;;;-0.29;100.00;98086.94;1224157;75;2917676;-65
2024/02/16 04:52:36;;;;;;;3.95;2.60;;;;;;;-0.25;100.00;98090.34;1223202;75;2936181;-66
2024/02/16 04:55:10;;;;;;;2.75;2.10;;;;;;;-0.39;100.00;98095.78;1224571;75;2922501;-65
2024/02/16 04:57:46;;;;;;;3.45;2.55;;;;;;;-0.39;100.00;98098.50;1223638;75;2918641;-65
2024/02/16 05:00:20;;;;;;;3.15;2.20;;;;;;;-0.26;100.00;98088.06;1224067;75;2922636;-65
2024/02/16 05:02:54;;;;;;;3.60;2.70;;;;;;;-0.27;100.00;98092.66;1224004;75;2925352;-60
2024/02/16 05:05:27;;;;;;;3.55;2.40;;;;;;;-0.23;100.00;98087.28;1223926;75;2933407;-63
2024/02/16 05:08:00;;;;;;;1.95;1.60;;;;;;;-0.26;100.00;98088.84;1224314;75;2919746;-64
2024/02/16 05:10:35;;;;;;;2.45;1.90;;;;;;;-0.32;100.00;98086.94;1224895;75;2923378;-64
2024/02/16 05:13:11;;;;;;;2.50;2.00;;;;;;;-0.30;100.00;98092.69;1224667;75;2922734;-66
2024/02/16 05:15:44;;;;;;;2.20;2.00;;;;;;;-0.30;100.00;98098.84;1224952;75;2921889;-64
2024/02/16 05:18:17;;;;;;;3.10;2.50;;;;;;;-0.28;100.00;98091.13;1224767;75;2918010;-64
2024/02/16 05:20:50;;;;;;;5.05;3.25;;;;;;;-0.33;100.00;98096.94;1224374;75;2924266;-66
2024/02/16 05:23:23;;;;;;;11.50;8.30;;;;;;;-0.45;100.00;98092.75;1223406;75;2918798;-63
2024/02/16 05:25:56;;;;;;;18.05;12.25;;;;;;;-0.40;100.00;98099.66;1223889;75;2918738;-64
2024/02/16 05:28:32;;;;;;;19.65;12.95;;;;;;;-0.50;100.00;98090.47;1223523;75;2922028;-65
2024/02/16 05:31:18;;;;;;;14.25;8.50;;;;;;;-0.52;100.00;98092.78;1208788;75;4072201;-65
2024/02/16 05:33:54;;;;;;;7.75;5.55;;;;;;;-0.58;100.00;98098.94;1224570;75;2919184;-61
2024/02/16 05:36:30;;;;;;;8.40;5.40;;;;;;;-0.62;100.00;98100.91;1223924;75;2925479;-67
2024/02/16 05:39:10;;;;;;;7.20;4.65;;;;;;;-0.57;100.00;98103.94;1223539;75;2918852;-62
2024/02/16 05:41:42;;;;;;;6.65;4.10;;;;;;;-0.54;100.00;98105.84;1223389;75;2916869;-67
2024/02/16 05:44:18;;;;;;;14.55;9.70;;;;;;;-0.45;100.00;98092.75;1222699;75;2926861;-66
2024/02/16 05:46:51;;;;;;;11.75;7.65;;;;;;;-0.46;100.00;98090.44;1223432;75;2921738;-65
2024/02/16 05:49:24;;;;;;;9.00;6.40;;;;;;;-0.40;100.00;98085.44;1222631;75;2949690;-64
2024/02/16 05:54:42;;;;;;;6.20;4.60;;;;;;;-0.36;100.00;98100.41;1221953;75;2917907;-65
2024/02/16 05:57:15;;;;;;;4.90;3.50;;;;;;;-0.31;100.00;98107.31;1166119;75;5546873;-61
2024/02/16 05:59:52;;;;;;;5.60;3.30;;;;;;;-0.32;100.00;98111.16;1223979;75;2922474;-64
2024/02/16 06:02:25;;;;;;;3.75;2.70;;;;;;;-0.25;100.00;98113.81;1223177;75;2921091;-64
2024/02/16 06:04:58;;;;;;;4.25;2.90;;;;;;;-0.28;100.00;98122.66;1223016;75;2922703;-65
2024/02/16 06:07:31;;;;;;;3.40;2.50;;;;;;;-0.34;100.00;98119.59;1223688;75;2920949;-63
2024/02/16 06:10:07;;;;;;;3.75;2.60;;;;;;;-0.29;100.00;98121.91;1223408;75;2916783;-64
2024/02/16 06:12:41;;;;;;;3.65;2.85;;;;;;;-0.22;100.00;98132.63;1223115;75;2924380;-63
2024/02/16 06:15:17;;;;;;;3.60;2.70;;;;;;;-0.11;100.00;98127.19;1222250;75;2918480;-66
2024/02/16 06:17:52;;;;;;;3.60;2.70;;;;;;;-0.01;100.00;98130.97;1222640;75;2922300;-64
2024/02/16 06:20:25;;;;;;;3.95;2.75;;;;;;;-0.02;100.00;98134.84;1222973;75;2929596;-64
2024/02/16 06:22:58;;;;;;;3.85;2.45;;;;;;;0.12;100.00;98126.69;1222708;75;2929755;-64
2024/02/16 06:25:31;;;;;;;3.35;2.30;;;;;;;0.23;100.00;98139.31;1223288;75;2919734;-66
2024/02/16 06:28:04;;;;;;;3.70;2.35;;;;;;;0.31;100.00;98140.78;1224842;75;2920409;-65
2024/02/16 06:30:39;;;;;;;3.40;2.20;;;;;;;0.36;100.00;98143.84;1217606;75;3305557;-65
2024/02/16 06:33:13;;;;;;;3.50;2.30;;;;;;;0.41;100.00;98140.72;1223315;75;2928069;-65
2024/02/16 06:35:46;;;;;;;3.35;2.50;;;;;;;0.44;100.00;98144.56;1221297;75;3019987;-65
2024/02/16 06:38:19;;;;;;;4.25;3.25;;;;;;;0.54;100.00;98141.00;1223326;75;2929484;-66
2024/02/16 06:40:52;;;;;;;6.30;4.15;;;;;;;0.63;100.00;98141.34;1223959;75;2924584;-63
2024/02/16 06:43:25;;;;;;;5.10;3.70;;;;;;;0.73;100.00;98142.41;1224373;75;2923867;-65
2024/02/16 06:46:01;;;;;;;4.70;3.60;;;;;;;0.97;100.00;98146.06;1223862;75;2921593;-66
2024/02/16 06:48:35;;;;;;;6.75;3.75;;;;;;;1.47;100.00;98152.91;1224443;75;2923414;-66
2024/02/16 06:51:08;;;;;;;7.20;5.15;;;;;;;1.80;100.00;98155.97;1223993;75;2923720;-64
2024/02/16 06:53:41;;;;;;;8.10;5.55;;;;;;;1.81;100.00;98160.22;1223529;75;2918071;-66
2024/02/16 06:56:14;;;;;;;7.60;5.75;;;;;;;1.86;100.00;98157.06;1224716;75;2929589;-66
2024/02/16 06:58:47;;;;;;;7.00;5.20;;;;;;;2.07;100.00;98161.44;1224035;75;2923760;-65
2024/02/16 07:01:22;;;;;;;6.10;4.30;;;;;;;2.55;100.00;98168.50;1223486;75;2921038;-65
2024/02/16 07:03:55;;;;;;;6.30;3.75;;;;;;;4.57;100.00;98158.09;1223817;75;2925688;-65
2024/02/16 07:06:28;;;;;;;4.15;3.40;;;;;;;6.91;100.00;98161.44;1222512;75;2929499;-65
2024/02/16 07:09:01;;;;;;;3.75;3.05;;;;;;;8.27;82.57;98164.84;1224724;75;2921165;-67
2024/02/16 07:11:34;;;;;;;5.25;4.35;;;;;;;7.83;82.07;98165.66;1214972;75;2918835;-66
2024/02/16 07:14:08;;;;;;;4.10;3.70;;;;;;;9.78;73.89;98163.03;1223298;75;2932968;-65
2024/02/16 07:16:43;;;;;;;4.15;3.60;;;;;;;10.41;67.60;98168.06;1225233;75;2916712;-62
2024/02/16 07:19:16;;;;;;;5.90;4.55;;;;;;;10.18;66.26;98164.78;1223796;75;2924522;-65
2024/02/16 07:21:49;;;;;;;5.60;3.90;;;;;;;8.14;71.62;98158.72;1223156;75;2922444;-65
2024/02/16 07:24:22;;;;;;;5.95;4.00;;;;;;;7.82;72.80;98158.69;1224752;67;2916276;-63
2024/02/16 07:26:55;;;;;;;6.35;3.75;;;;;;;8.09;73.79;98157.34;1223709;75;2925565;-65
2024/02/16 07:29:28;;;;;;;4.50;3.50;;;;;;;9.39;68.77;98151.81;1222849;75;2937682;-64
2024/02/16 07:32:03;;;;;;;4.20;3.25;;;;;;;11.36;63.40;98152.19;1224663;75;2919058;-64
2024/02/16 07:34:36;;;;;;;4.55;2.95;;;;;;;12.65;58.86;98151.66;1223820;75;2927184;-65
2024/02/16 07:37:09;;;;;;;4.10;3.10;;;;;;;14.88;53.17;98152.91;1223035;75;2925079;-64
2024/02/16 07:39:42;;;;;;;6.00;3.80;;;;;;;15.82;50.10;98151.03;1222916;75;2920926;-66
2024/02/16 07:42:15;;;;;;;5.40;3.60;;;;;;;16.95;47.13;98149.00;1224193;75;2920110;-63
2024/02/16 07:44:48;;;;;;;4.55;3.35;;;;;;;16.52;47.06;98146.53;1222487;75;2939740;-64
2024/02/16 07:47:23;;;;;;;5.20;3.65;;;;;;;18.60;44.14;98149.53;1222989;75;2929887;-65
2024/02/16 07:49:58;;;;;;;5.40;3.30;;;;;;;18.71;43.03;98139.09;1222164;75;2918025;-64
2024/02/16 07:52:32;;;;;;;5.70;3.10;;;;;;;18.95;42.74;98151.47;1222978;75;2917646;-63
2024/02/16 07:55:04;;;;;;;5.40;3.70;;;;;;;18.17;44.52;98152.94;1224066;75;2916519;-64
2024/02/16 07:57:39;;;;;;;5.35;3.55;;;;;;;17.77;44.50;98152.41;1223403;75;2923138;-68
2024/02/16 08:00:15;;;;;;;6.70;3.85;;;;;;;19.62;41.31;98146.38;1223996;75;2923069;-63
2024/02/16 08:02:51;;;;;;;5.00;3.65;;;;;;;18.51;43.34;98153.41;1222710;75;2922681;-66
2024/02/16 08:05:24;;;;;;;8.55;4.55;;;;;;;16.64;46.08;98147.25;1224668;75;2924996;-65
2024/02/16 08:07:57;;;;;;;7.60;4.45;;;;;;;16.01;47.78;98148.53;1223672;75;2927296;-67
2024/02/16 08:10:30;;;;;;;8.65;4.80;;;;;;;14.38;50.61;98147.81;1222723;75;2920132;-66
2024/02/16 08:13:03;;;;;;;9.40;4.65;;;;;;;15.82;49.31;98153.03;1223917;75;2922756;-65
2024/02/16 08:15:36;;;;;;;8.55;5.20;;;;;;;13.93;51.93;98159.19;1223402;75;2923550;-65
2024/02/16 08:18:11;;;;;;;8.55;4.35;;;;;;;15.99;48.75;98145.53;1224130;75;2920646;-66
2024/02/16 08:20:44;;;;;;;7.90;4.60;;;;;;;13.97;52.44;98145.97;1223713;75;2920690;-67
2024/02/16 08:23:17;;;;;;;10.00;4.90;;;;;;;13.50;54.62;98148.00;1224497;75;2914809;-65
2024/02/16 08:25:50;;;;;;;10.80;5.10;;;;;;;11.61;58.76;98145.41;1224671;75;2922484;-65
2024/02/16 08:28:23;;;;;;;11.50;6.05;;;;;;;11.46;59.67;98139.91;1223408;75;2918257;-66
2024/02/16 08:30:56;;;;;;;7.90;5.75;;;;;;;11.28;61.15;98155.28;1221042;75;2918089;-66
2024/02/16 08:33:31;;;;;;;7.75;5.25;;;;;;;12.90;58.98;98144.00;1221130;75;2931053;-66
2024/02/16 08:36:05;;;;;;;6.75;4.90;;;;;;;12.01;59.74;98144.16;1223345;75;2915684;-65
2024/02/16 08:38:39;;;;;;;11.05;5.70;;;;;;;13.15;58.17;98151.56;1223219;75;2925792;-66
2024/02/16 08:41:12;;;;;;;8.60;6.45;;;;;;;11.21;61.76;98154.88;1223148;75;2917871;-65
2024/02/16 08:43:45;;;;;;;9.35;5.90;;;;;;;12.47;61.57;98146.38;1223022;75;2943289;-63
2024/02/16 08:46:18;;;;;;;8.75;5.80;;;;;;;11.80;60.51;98151.50;1223302;75;2924596;-65
2024/02/16 08:48:53;;;;;;;8.55;5.95;;;;;;;13.01;58.50;98141.38;1221726;75;2926222;-66
2024/02/16 08:51:26;;;;;;;10.40;6.60;;;;;;;12.89;58.87;98148.75;1221040;75;2927861;-64
2024/02/16 08:53:59;;;;;;;8.40;5.55;;;;;;;13.53;56.97;98147.03;1224741;75;2918103;-65
2024/02/16 08:56:34;;;;;;;6.95;4.75;;;;;;;15.53;52.54;98141.16;1224352;75;2921882;-65
2024/02/16 08:59:06;;;;;;;7.10;4.70;;;;;;;14.61;53.68;98149.50;1224095;75;2928289;-65
2024/02/16 09:01:42;;;;;;;9.75;5.75;;;;;;;13.70;57.17;98154.72;1224038;75;2914418;-66
2024/02/16 09:04:19;;;;;;;10.60;7.55;;;;;;;11.78;62.07;98141.00;1221019;75;3120491;-65
2024/02/16 09:06:52;;;;;;;11.85;6.55;;;;;;;12.55;59.23;98144.75;1222913;75;2929884;-62
2024/02/16 09:09:25;;;;;;;13.00;6.25;;;;;;;12.95;58.40;98135.06;1224041;75;2920328;-66
2024/02/16 09:11:58;;;;;;;10.25;6.85;;;;;;;12.80;58.74;98143.38;1187650;75;5762909;-65
2024/02/16 09:14:31;;;;;;;9.20;6.20;;;;;;;12.52;59.63;98143.72;1224505;75;2919341;-65
2024/02/16 09:17:04;;;;;;;10.00;6.10;;;;;;;12.89;59.86;98143.25;1223706;75;2929134;-64
2024/02/16 09:19:40;;;;;;;10.05;6.30;;;;;;;12.12;60.65;98147.84;1221950;75;2921693;-67
2024/02/16 09:22:12;;;;;;;10.20;6.45;;;;;;;12.34;62.67;98147.44;1223675;75;2912833;-63
2024/02/16 09:24:46;;;;;;;9.45;5.90;;;;;;;12.05;60.95;98142.75;1223780;75;2922158;-66
2024/02/16 09:27:19;;;;;;;8.60;6.15;;;;;;;11.95;63.06;98141.31;1224051;75;2924064;-65
2024/02/16 09:29:52;;;;;;;11.65;6.65;;;;;;;11.80;62.76;98143.28;1224060;75;2909701;-66
2024/02/16 09:32:25;;;;;;;8.25;6.50;;;;;;;10.84;64.79;98147.63;1224287;75;2922652;-64
2024/02/16 09:35:01;;;;;;;6.60;5.50;;;;;;;13.20;60.65;98134.41;1225261;75;2900350;-66
2024/02/16 09:37:34;;;;;;;8.05;5.70;;;;;;;13.27;59.68;98135.97;1223579;75;2921522;-66
2024/02/16 09:40:10;;;;;;;10.70;6.30;;;;;;;13.79;58.13;98144.31;1222007;75;2927395;-64
2024/02/16 09:42:43;;;;;;;7.45;5.50;;;;;;;14.01;58.20;98127.25;1197718;75;5051466;-66
2024/02/16 09:45:18;;;;;;;9.70;6.50;;;;;;;13.65;58.09;98139.66;1224016;75;2928931;-67
2024/02/16 09:47:53;;;;;;;6.75;4.75;;;;;;;14.53;56.88;98139.38;1224094;67;2977515;-68
2024/02/16 09:50:29;;;;;;;8.25;5.70;;;;;;;14.47;57.19;98142.84;1223535;75;2924304;-64
2024/02/16 09:53:03;;;;;;;11.50;5.40;;;;;;;14.61;56.40;98146.75;1224590;75;2920689;-65
2024/02/16 09:55:36;;;;;;;8.90;5.95;;;;;;;13.86;57.93;98137.63;1224274;75;2927541;-65
2024/02/16 09:58:16;;;;;;;8.05;5.85;;;;;;;15.32;56.00;98135.84;1224468;75;2923189;-64
2024/02/16 10:00:54;;;;;;;15.40;6.30;;;;;;;14.99;56.43;98141.22;1224252;75;2917232;-65
2024/02/16 10:03:30;;;;;;;7.90;5.40;;;;;;;16.17;54.84;98138.78;1224480;75;2921745;-67
2024/02/16 10:06:15;;;;;;;10.15;6.20;;;;;;;14.77;56.23;98142.59;1222561;75;2921022;-65
2024/02/16 10:08:58;;;;;;;7.30;5.10;;;;;;;14.93;57.23;98138.41;1219550;75;2929363;-66
2024/02/16 10:11:32;;;;;;;8.75;6.75;;;;;;;15.24;55.36;98132.03;1220547;75;2918395;-66
2024/02/16 10:14:07;;;;;;;9.90;5.80;;;;;;;14.97;57.12;98133.41;1223181;75;2914128;-67
2024/02/16 10:16:41;;;;;;;8.15;5.60;;;;;;;15.03;56.71;98130.69;1223922;75;2923085;-66
2024/02/16 10:19:14;;;;;;;7.95;5.80;;;;;;;14.82;56.41;98138.38;1224177;75;2918143;-65
2024/02/16 10:21:49;;;;;;;9.65;6.00;;;;;;;15.47;55.18;98140.41;1222048;75;2932697;-64
2024/02/16 10:24:26;;;;;;;7.35;5.10;;;;;;;16.34;53.20;98125.69;1223795;75;2918807;-66
2024/02/16 10:26:59;;;;;;;8.35;5.55;;;;;;;15.06;55.74;98127.69;1223716;75;2922275;-67
2024/02/16 10:29:33;;;;;;;9.85;6.15;;;;;;;15.45;55.63;98127.09;1222905;75;2924402;-68
2024/02/16 10:32:07;;;;;;;9.20;5.95;;;;;;;15.67;54.84;98126.38;1222585;75;2923834;-67
2024/02/16 10:34:42;;;;;;;8.50;5.90;;;;;;;16.10;54.08;98117.94;1223535;75;2924998;-65
2024/02/16 10:37:18;;;;;;;9.45;5.90;;;;;;;15.50;53.78;98129.09;1224125;75;2920660;-65
2024/02/16 10:39:52;;;;;;;7.30;5.40;;;;;;;16.01;53.09;98115.41;1223220;75;2918845;-66
2024/02/16 10:42:27;;;;;;;7.25;5.00;;;;;;;17.71;51.18;98108.16;1223447;75;2924383;-68
2024/02/16 10:45:00;;;;;;;7.70;6.15;;;;;;;17.46;51.34;98107.28;1223192;75;2932660;-67
2024/02/16 10:47:33;;;;;;;9.05;6.20;;;;;;;16.79;52.48;98109.06;1221912;75;2925689;-66
2024/02/16 10:50:07;;;;;;;11.50;8.60;;;;;;;17.56;50.82;98102.97;1220360;75;2933489;-65
2024/02/16 10:52:44;;;;;;;7.30;5.30;;;;;;;17.25;52.08;98101.38;1224411;75;2917657;-65
2024/02/16 10:55:18;;;;;;;7.35;5.85;;;;;;;16.82;52.24;98102.53;1225244;75;2922012;-66
2024/02/16 10:57:53;;;;;;;8.00;5.55;;;;;;;17.52;51.14;98096.19;1224938;75;2914297;-67
2024/02/16 11:00:25;;;;;;;7.35;5.45;;;;;;;17.62;50.36;98091.84;1223394;75;2924707;-67
2024/02/16 11:03:00;;;;;;;6.10;4.60;;;;;;;18.06;50.55;98092.78;1224245;75;2916779;-65
2024/02/16 11:05:42;;;;;;;7.50;5.25;;;;;;;17.65;50.37;98088.81;1225219;75;2922856;-68
2024/02/16 11:08:20;;;;;;;8.30;5.25;;;;;;;17.58;51.06;98088.59;1224339;75;2927921;-67
2024/02/16 11:11:03;;;;;;;12.30;5.90;;;;;;;17.60;51.65;98091.59;1225316;75;2922693;-67
2024/02/16 11:13:39;;;;;;;6.05;4.40;;;;;;;19.64;46.44;98082.72;1222224;83;2922441;-68
2024/02/16 11:16:14;;;;;;;8.30;5.05;;;;;;;18.04;48.61;98076.72;1224836;75;2936283;-66
2024/02/16 11:18:49;;;;;;;6.30;4.95;;;;;;;17.46;49.94;98074.06;1224261;75;2923101;-65
2024/02/16 11:21:22;;;;;;;6.85;5.40;;;;;;;17.80;49.65;98066.31;1225045;75;2923369;-68
2024/02/16 11:24:06;;;;;;;8.80;6.05;;;;;;;16.97;50.72;98079.34;1224232;75;2933024;-66
2024/02/16 11:26:48;;;;;;;10.50;4.70;;;;;;;16.65;51.20;98062.34;1224130;75;2924629;-66
2024/02/16 11:29:21;;;;;;;9.80;6.15;;;;;;;17.68;50.22;98062.09;1224546;75;2920287;-67
2024/02/16 11:31:56;;;;;;;7.50;4.80;;;;;;;17.55;50.43;98061.94;1224085;75;2918080;-65
2024/02/16 11:34:29;;;;;;;7.25;5.35;;;;;;;16.68;51.83;98053.78;1224241;75;2922556;-66
2024/02/16 11:37:03;;;;;;;8.30;5.60;;;;;;;17.50;49.70;98057.19;1225369;75;2922733;-67
2024/02/16 11:39:41;;;;;;;5.50;4.60;;;;;;;17.65;50.19;98061.13;1223837;75;2921493;-67
2024/02/16 11:42:16;;;;;;;7.85;5.25;;;;;;;17.90;49.97;98050.13;1224339;75;2929698;-65
2024/02/16 11:44:56;;;;;;;11.50;5.20;;;;;;;18.69;48.80;98044.56;1223145;75;2928995;-68
2024/02/16 11:47:30;;;;;;;7.75;5.60;;;;;;;18.19;49.12;98039.56;1223464;75;2922164;-65